Decoded Metar for KCVW ( in ) (IATA:) | Meteo·Mobile Aviation Weather
aviador You're here:

KCVW Decoded Metar

in
Report Time2018-12-18 17:35:00
UTC Time2018-12-18 17:48:39
Flight Rules vfr VFR
Wind110° at 06 kt
W.Rank110° ranks 22
Current wind is below 110° avg. (9.2)
Visibility9999 m
Phenomena:N/A
Clouds:N/A
Expected CloudBase > 1,200 ft AGL from Temp-Dew spread
CeilingNone
Temp16°C
Dew Point13°C (83% RH)
AAT14.8°C
QNH1020 hPa
Raw Report
KCVW 181735Z AUTO 11006KT 10SM CLR 16/13 A3012 RMK A01=

Extra information for KCVW:More info

Social comments